KDLF/DLF METAR and TAF weather

Enter ICAO airport designator
Station Type Date Time Source
KDLF METAR 2018/01/23 00:54 UTC NOAA

KDLF 230054Z 36005KT 10SM FEW250 12/M11 A3013 RMK AO2A SLP203 T01231107


Station Type Date Time Source
KDLF Decoded METAR 2018/01/23 00:54 UTC NOAA

Laughlin, Laughlin Air Force Base Auxiliary Airfield, TX, United States (KDLF) 29-07-00N 100-28-00W 294M
Jan 22, 2018 - 07:54 PM EST / 2018.01.23 0054 UTC
Wind: from the N (360 degrees) at 6 MPH (5 KT):0
Visibility: 10 mile(s):0
Sky conditions: mostly clear
Temperature: 54.1 F (12.3 C)
Dew Point: 12.7 F (-10.7 C)
Relative Humidity: 18%
Pressure (altimeter): 30.13 in. Hg (1020 hPa)
ob: KDLF 230054Z 36005KT 10SM FEW250 12/M11 A3013 RMK AO2A SLP203 T01231107
cycle: 1

Station Type Date Time Source
KDLF TAF 2018/01/22 18:03 UTC NOAA

TAF KDLF 221800Z 2218/2324 33015G25KT 9999 FEW250 QNH3011INS
BECMG 2223/2224 34009KT 9999 SKC QNH3012INS
BECMG 2315/2316 14009KT 9999 FEW250 QNH3020INS TX19/2221Z TN01/2312Z


Example: see airport list